createdAt,value
2023-03-11T00:01:29.632Z,5.61
2023-03-11T00:04:00.924Z,5.40
2023-03-11T00:06:30.982Z,5.25
2023-03-11T00:08:59.891Z,5.17
2023-03-11T00:11:31.324Z,5.11
2023-03-11T00:14:00.312Z,5.06
2023-03-11T00:16:29.335Z,4.94
2023-03-11T00:18:58.648Z,4.98
2023-03-11T00:21:27.598Z,4.87
2023-03-11T00:24:01.230Z,4.73
2023-03-11T00:26:30.253Z,4.77
2023-03-11T00:29:01.927Z,4.56
2023-03-11T00:31:30.962Z,4.59
2023-03-11T00:34:00.641Z,4.58
2023-03-11T00:36:34.038Z,4.59
2023-03-11T00:39:07.042Z,4.50
2023-03-11T00:41:38.022Z,4.54
2023-03-11T00:44:06.803Z,4.56
2023-03-11T00:46:35.654Z,4.59
2023-03-11T00:49:04.638Z,4.61
2023-03-11T00:51:35.904Z,4.63
2023-03-11T00:54:06.691Z,4.54
2023-03-11T00:56:35.272Z,4.54
2023-03-11T00:59:03.817Z,4.57
2023-03-11T01:01:32.323Z,4.60
2023-03-11T01:04:01.196Z,4.57
2023-03-11T01:06:43.149Z,4.52
2023-03-11T01:09:15.277Z,4.43
2023-03-11T01:11:43.937Z,4.24
2023-03-11T01:14:15.063Z,4.15
2023-03-11T01:16:43.715Z,4.03
2023-03-11T01:19:12.463Z,3.95
2023-03-11T01:21:41.455Z,3.87
2023-03-11T01:24:10.483Z,3.75
2023-03-11T01:26:40.415Z,3.70
2023-03-11T01:29:09.109Z,3.58
2023-03-11T01:31:38.082Z,3.43
2023-03-11T01:34:06.841Z,3.45
2023-03-11T01:36:35.383Z,3.40
2023-03-11T01:39:19.512Z,3.37
2023-03-11T01:41:50.070Z,3.31
2023-03-11T01:44:18.559Z,3.30
2023-03-11T01:47:24.105Z,3.29
2023-03-11T01:49:52.958Z,3.20
2023-03-11T01:52:21.457Z,3.13
2023-03-11T01:54:51.895Z,3.04
2023-03-11T01:57:23.431Z,2.98
2023-03-11T01:59:57.000Z,2.93
2023-03-11T02:02:28.464Z,2.91
2023-03-11T02:04:57.066Z,2.95
2023-03-11T02:07:27.418Z,2.86
2023-03-11T02:09:56.569Z,2.91
2023-03-11T02:12:26.536Z,2.87
2023-03-11T02:14:55.258Z,2.77
2023-03-11T02:17:23.856Z,2.71
2023-03-11T02:20:04.895Z,2.77
2023-03-11T02:22:34.512Z,2.72
2023-03-11T02:25:06.017Z,2.68
2023-03-11T02:27:39.014Z,2.75
2023-03-11T02:30:08.837Z,2.68
2023-03-11T02:32:37.923Z,2.66
2023-03-11T02:35:07.701Z,2.63
2023-03-11T02:37:36.369Z,2.54
2023-03-11T02:40:37.604Z,2.67
2023-03-11T02:43:09.763Z,2.49
2023-03-11T02:45:43.307Z,2.41
2023-03-11T02:48:13.332Z,2.25
2023-03-11T02:50:48.776Z,2.30
2023-03-11T02:53:17.750Z,2.27
2023-03-11T02:55:46.518Z,2.20
2023-03-11T02:58:16.247Z,2.16
2023-03-11T03:00:46.692Z,2.10
2023-03-11T03:03:16.110Z,1.92
2023-03-11T03:05:45.076Z,1.92
2023-03-11T03:08:14.040Z,1.82
2023-03-11T03:10:43.010Z,1.86
2023-03-11T03:13:23.750Z,1.86
2023-03-11T03:15:52.296Z,1.84
2023-03-11T03:18:21.017Z,1.80
2023-03-11T03:20:49.531Z,1.74
2023-03-11T03:23:18.576Z,1.74
2023-03-11T03:25:48.043Z,1.66
2023-03-11T03:28:18.496Z,1.66
2023-03-11T03:30:47.505Z,1.62
2023-03-11T03:33:16.206Z,1.68
2023-03-11T03:35:46.228Z,1.56
2023-03-11T03:38:15.317Z,1.58
2023-03-11T03:40:48.147Z,1.63
2023-03-11T03:43:20.466Z,1.60
2023-03-11T03:45:57.399Z,1.54
2023-03-11T03:48:29.134Z,1.56
2023-03-11T03:50:57.892Z,1.48
2023-03-11T03:53:26.304Z,1.49
2023-03-11T03:55:55.425Z,1.59
2023-03-11T03:58:25.449Z,1.49
2023-03-11T04:00:57.662Z,1.56
2023-03-11T04:03:26.743Z,1.58
2023-03-11T04:05:57.728Z,1.57
2023-03-11T04:08:26.251Z,1.55
2023-03-11T04:10:58.874Z,1.68
2023-03-11T04:13:28.723Z,1.73
2023-03-11T04:15:57.698Z,1.63
2023-03-11T04:18:26.402Z,1.71
2023-03-11T04:20:55.852Z,1.73
2023-03-11T04:23:25.002Z,1.77
2023-03-11T04:25:54.310Z,1.80
2023-03-11T04:28:26.004Z,1.80
2023-03-11T04:30:56.681Z,1.72
2023-03-11T04:33:26.972Z,1.62
2023-03-11T04:35:56.073Z,1.54
2023-03-11T04:38:25.033Z,1.51
2023-03-11T04:40:53.730Z,1.52
2023-03-11T04:43:22.402Z,1.47
2023-03-11T04:45:51.889Z,1.48
2023-03-11T04:48:22.010Z,1.41
2023-03-11T04:50:50.846Z,1.41
2023-03-11T04:53:19.611Z,1.33
2023-03-11T04:55:48.812Z,1.30
2023-03-11T04:58:17.165Z,1.30
2023-03-11T05:00:46.599Z,1.30
2023-03-11T05:03:15.281Z,1.33
2023-03-11T05:05:45.954Z,1.28
2023-03-11T05:08:14.565Z,1.22
2023-03-11T05:10:44.713Z,1.33
2023-03-11T05:13:13.519Z,1.21
2023-03-11T05:15:48.685Z,1.18
2023-03-11T05:18:17.808Z,1.22
2023-03-11T05:20:49.420Z,1.23
2023-03-11T05:23:17.938Z,1.17
2023-03-11T05:25:46.931Z,1.11
2023-03-11T05:28:15.627Z,1.25
2023-03-11T05:30:45.676Z,1.20
2023-03-11T05:33:14.448Z,1.13
2023-03-11T05:35:42.965Z,1.01
2023-03-11T05:38:13.025Z,1.07
2023-03-11T05:40:41.573Z,1.05
2023-03-11T05:43:10.214Z,0.99
2023-03-11T05:45:42.034Z,1.02
2023-03-11T05:48:10.813Z,0.97
2023-03-11T05:50:39.669Z,0.99
2023-03-11T05:53:08.249Z,0.92
2023-03-11T05:55:38.397Z,0.88
2023-03-11T05:58:07.064Z,0.90
2023-03-11T06:00:37.379Z,1.04
2023-03-11T06:03:06.179Z,0.93
2023-03-11T06:05:37.476Z,0.94
2023-03-11T06:08:06.217Z,0.89
2023-03-11T06:10:34.521Z,0.86
2023-03-11T06:13:04.421Z,0.87
2023-03-11T06:15:52.989Z,0.84
2023-03-11T06:18:21.442Z,0.92
2023-03-11T06:20:50.588Z,0.99
2023-03-11T06:23:28.789Z,1.06
2023-03-11T06:25:58.166Z,1.04
2023-03-11T06:28:30.912Z,1.02
2023-03-11T06:31:08.900Z,1.09
2023-03-11T06:33:37.320Z,1.14
2023-03-11T06:36:07.499Z,1.20
2023-03-11T06:38:37.488Z,1.18
2023-03-11T06:41:08.959Z,1.17
2023-03-11T06:43:41.079Z,1.24
2023-03-11T06:46:13.071Z,1.34
2023-03-11T06:48:41.588Z,1.44
2023-03-11T06:51:12.327Z,1.51
2023-03-11T06:53:41.104Z,1.72
2023-03-11T06:56:11.255Z,1.95
2023-03-11T06:58:42.920Z,2.11
2023-03-11T07:01:13.774Z,2.24
2023-03-11T07:03:43.373Z,2.25
2023-03-11T07:06:14.751Z,2.24
2023-03-11T07:08:44.345Z,2.40
2023-03-11T07:11:15.773Z,2.38
2023-03-11T07:13:46.095Z,2.38
2023-03-11T07:16:16.046Z,2.46
2023-03-11T07:18:45.536Z,2.38
2023-03-11T07:21:16.616Z,2.33
2023-03-11T07:23:46.006Z,2.49
2023-03-11T07:26:16.571Z,2.56
2023-03-11T07:28:46.672Z,2.52
2023-03-11T07:31:17.419Z,2.56
2023-03-11T07:33:46.608Z,2.47
2023-03-11T07:36:17.312Z,2.50
2023-03-11T07:38:46.729Z,2.74
2023-03-11T07:41:40.855Z,2.92
2023-03-11T07:44:13.318Z,2.87
2023-03-11T07:46:42.447Z,2.85
2023-03-11T07:49:11.334Z,3.24
2023-03-11T07:51:43.929Z,3.02
2023-03-11T07:54:13.753Z,3.07
2023-03-11T07:56:42.680Z,3.06
2023-03-11T07:59:12.656Z,3.16
2023-03-11T08:01:47.454Z,2.95
2023-03-11T08:04:17.748Z,3.05
2023-03-11T08:06:48.175Z,3.06
2023-03-11T08:09:16.698Z,3.05
2023-03-11T08:11:45.506Z,2.77
2023-03-11T08:14:15.555Z,2.71
2023-03-11T08:16:44.289Z,2.93
2023-03-11T08:19:13.648Z,3.01
2023-03-11T08:21:42.809Z,2.87
2023-03-11T08:24:12.865Z,2.78
2023-03-11T08:26:42.399Z,2.94
2023-03-11T08:29:11.128Z,3.50
2023-03-11T08:31:41.081Z,3.61
2023-03-11T08:34:11.399Z,3.76
2023-03-11T08:36:40.763Z,3.71
2023-03-11T08:39:09.768Z,3.85
2023-03-11T08:41:38.516Z,3.75
2023-03-11T08:44:15.312Z,3.74
2023-03-11T08:46:45.934Z,3.63
2023-03-11T08:49:14.810Z,3.28
2023-03-11T08:51:43.893Z,3.12
2023-03-11T08:54:12.873Z,2.93
2023-03-11T08:56:41.539Z,2.89
2023-03-11T08:59:10.254Z,2.85
2023-03-11T09:01:38.689Z,2.75
2023-03-11T09:04:09.035Z,2.83
2023-03-11T09:06:43.658Z,2.63
2023-03-11T09:09:12.685Z,2.57
2023-03-11T09:11:42.250Z,2.58
2023-03-11T09:14:10.930Z,2.58
2023-03-11T09:16:39.406Z,2.50
2023-03-11T09:19:09.456Z,2.59
2023-03-11T09:21:38.228Z,2.49
2023-03-11T09:24:07.710Z,2.66
2023-03-11T09:26:36.861Z,2.72
2023-03-11T09:29:05.822Z,2.58
2023-03-11T09:31:34.279Z,2.78
2023-03-11T09:34:03.177Z,2.90
2023-03-11T09:36:37.652Z,2.90
2023-03-11T09:39:06.099Z,2.95
2023-03-11T09:41:55.272Z,2.98
2023-03-11T09:44:30.398Z,2.81
2023-03-11T09:47:16.923Z,2.93
2023-03-11T09:49:56.892Z,3.00
2023-03-11T09:52:31.717Z,3.27
2023-03-11T09:55:02.781Z,3.48
2023-03-11T09:57:34.769Z,3.56
2023-03-11T10:00:06.943Z,3.61
2023-03-11T10:02:38.418Z,3.92
2023-03-11T10:05:15.325Z,3.86
2023-03-11T10:07:50.062Z,3.08
2023-03-11T10:10:19.414Z,3.11
2023-03-11T10:12:54.049Z,3.09
2023-03-11T10:15:28.744Z,2.78
2023-03-11T10:18:06.875Z,2.78
2023-03-11T10:20:41.532Z,2.93
2023-03-11T10:23:20.369Z,3.02
2023-03-11T10:25:59.872Z,3.11
2023-03-11T10:28:33.882Z,3.01
2023-03-11T10:31:07.949Z,3.12
2023-03-11T10:33:41.811Z,3.11
2023-03-11T10:36:14.417Z,3.13
2023-03-11T10:38:47.370Z,3.29
2023-03-11T10:41:19.441Z,3.29
2023-03-11T10:43:52.038Z,4.07
2023-03-11T10:46:22.698Z,4.63
2023-03-11T10:48:51.378Z,3.83
2023-03-11T10:51:23.082Z,3.71
2023-03-11T10:53:54.660Z,3.62
2023-03-11T10:56:29.437Z,3.58
2023-03-11T10:58:58.606Z,3.49
2023-03-11T11:01:29.041Z,3.32
2023-03-11T11:04:01.079Z,3.35
2023-03-11T11:06:31.486Z,3.39
2023-03-11T11:09:16.431Z,3.30
2023-03-11T11:11:46.201Z,3.63
2023-03-11T11:14:15.004Z,3.90
2023-03-11T11:16:44.116Z,4.00
2023-03-11T11:19:14.248Z,3.87
2023-03-11T11:21:44.471Z,3.95
2023-03-11T11:24:19.860Z,3.87
2023-03-11T11:27:06.714Z,3.71
2023-03-11T11:29:35.472Z,3.76
2023-03-11T11:32:20.218Z,3.70
2023-03-11T11:34:58.794Z,4.07
2023-03-11T11:37:32.277Z,4.85
2023-03-11T11:40:11.595Z,6.01
2023-03-11T11:42:41.104Z,6.49
2023-03-11T11:45:16.718Z,6.57
2023-03-11T11:47:47.493Z,6.53
2023-03-11T11:50:20.083Z,5.22
2023-03-11T11:52:51.359Z,5.14
2023-03-11T11:55:24.476Z,4.66
2023-03-11T11:57:53.382Z,4.52
2023-03-11T12:00:25.623Z,4.24
2023-03-11T12:03:07.454Z,4.13
2023-03-11T12:05:40.179Z,3.95
2023-03-11T12:08:16.869Z,3.69
2023-03-11T12:10:50.011Z,3.65
2023-03-11T12:13:39.357Z,3.43
2023-03-11T12:16:14.664Z,3.27
2023-03-11T12:18:46.961Z,3.26
2023-03-11T12:21:27.626Z,3.15
2023-03-11T12:24:07.522Z,3.26
2023-03-11T12:26:40.037Z,3.32
2023-03-11T12:29:16.051Z,3.44
2023-03-11T12:31:45.805Z,3.64
2023-03-11T12:34:19.565Z,3.69
2023-03-11T12:36:50.795Z,3.81
2023-03-11T12:39:23.798Z,4.67
2023-03-11T12:42:18.242Z,5.36
2023-03-11T12:44:47.837Z,5.43
2023-03-11T12:47:26.617Z,5.50
2023-03-11T12:49:55.917Z,4.64
2023-03-11T12:52:27.777Z,4.72
2023-03-11T12:55:39.771Z,4.67
2023-03-11T12:58:41.182Z,4.67
2023-03-11T13:01:19.888Z,4.46
2023-03-11T13:04:01.636Z,4.46
2023-03-11T13:06:54.754Z,4.32
2023-03-11T13:09:23.490Z,4.23
2023-03-11T13:11:52.864Z,4.33
2023-03-11T13:14:32.644Z,4.87
2023-03-11T13:17:27.287Z,4.93
2023-03-11T13:20:03.381Z,5.22
2023-03-11T13:23:17.448Z,4.83
2023-03-11T13:26:22.617Z,4.16
2023-03-11T13:28:59.518Z,3.88
2023-03-11T13:31:44.012Z,3.47
2023-03-11T13:34:16.706Z,3.37
2023-03-11T13:36:59.210Z,3.35
2023-03-11T13:39:41.791Z,3.12
2023-03-11T13:42:21.775Z,3.12
2023-03-11T13:44:51.323Z,3.00
2023-03-11T13:47:30.376Z,3.16
2023-03-11T13:50:03.482Z,3.25
2023-03-11T13:52:34.472Z,2.97
2023-03-11T13:55:05.129Z,3.09
2023-03-11T13:57:35.135Z,3.04
2023-03-11T14:00:17.190Z,3.12
2023-03-11T14:02:56.930Z,3.23
2023-03-11T14:05:27.083Z,3.13
2023-03-11T14:07:55.945Z,3.18
2023-03-11T14:10:32.103Z,3.08
2023-03-11T14:13:09.284Z,2.97
2023-03-11T14:15:46.116Z,2.89
2023-03-11T14:18:31.733Z,2.80
2023-03-11T14:21:01.036Z,2.73
2023-03-11T14:23:32.652Z,2.77
2023-03-11T14:26:07.365Z,2.91
2023-03-11T14:28:40.729Z,2.81
2023-03-11T14:31:09.728Z,2.92
2023-03-11T14:33:40.034Z,2.91
2023-03-11T14:36:13.188Z,2.89
2023-03-11T14:38:46.395Z,2.78
2023-03-11T14:41:15.605Z,2.56
2023-03-11T14:43:47.463Z,2.58
2023-03-11T14:46:20.896Z,2.59
2023-03-11T14:48:51.133Z,2.59
2023-03-11T14:51:23.731Z,2.59
2023-03-11T14:54:06.975Z,2.48
2023-03-11T14:56:38.407Z,2.43
2023-03-11T14:59:13.630Z,2.44
2023-03-11T15:01:43.823Z,2.53
2023-03-11T15:04:22.900Z,2.57
2023-03-11T15:06:52.405Z,2.51
2023-03-11T15:09:22.651Z,2.46
2023-03-11T15:11:55.570Z,2.46
2023-03-11T15:14:25.627Z,2.48
2023-03-11T15:16:55.400Z,2.44
2023-03-11T15:19:33.473Z,2.37
2023-03-11T15:22:08.406Z,2.35
2023-03-11T15:24:37.729Z,2.30
2023-03-11T15:27:08.571Z,2.26
2023-03-11T15:29:40.135Z,2.15
2023-03-11T15:32:39.643Z,1.96
2023-03-11T15:35:19.991Z,1.86
2023-03-11T15:37:50.039Z,1.97
2023-03-11T15:40:42.313Z,2.05
2023-03-11T15:43:25.477Z,2.05
2023-03-11T15:45:58.994Z,2.09
2023-03-11T15:48:29.242Z,2.13
2023-03-11T15:51:00.155Z,2.00
2023-03-11T15:53:32.734Z,1.98
2023-03-11T15:56:07.969Z,2.20
2023-03-11T15:58:38.237Z,2.05
2023-03-11T16:01:07.802Z,2.06
2023-03-11T16:03:36.783Z,2.10
2023-03-11T16:06:07.056Z,2.12
2023-03-11T16:08:35.954Z,2.11
2023-03-11T16:11:04.696Z,2.06
2023-03-11T16:13:33.870Z,2.07
2023-03-11T16:16:04.670Z,2.11
2023-03-11T16:18:34.086Z,2.14
2023-03-11T16:21:10.225Z,2.19
2023-03-11T16:23:51.254Z,2.05
2023-03-11T16:26:23.387Z,1.98
2023-03-11T16:28:52.115Z,1.97
2023-03-11T16:31:20.697Z,1.78
2023-03-11T16:33:49.212Z,1.80
2023-03-11T16:36:17.924Z,1.74
2023-03-11T16:38:50.393Z,1.70
2023-03-11T16:41:19.259Z,1.69
2023-03-11T16:43:54.118Z,1.61
2023-03-11T16:46:23.237Z,1.60
2023-03-11T16:48:53.809Z,1.52
2023-03-11T16:51:22.644Z,1.50
2023-03-11T16:53:52.958Z,1.42
2023-03-11T16:56:22.975Z,1.32
2023-03-11T16:58:51.503Z,1.37
2023-03-11T17:01:21.966Z,1.35
2023-03-11T17:03:52.235Z,1.40
2023-03-11T17:06:24.447Z,1.41
2023-03-11T17:08:54.391Z,1.44
2023-03-11T17:11:24.648Z,1.45
2023-03-11T17:14:13.843Z,1.45
2023-03-11T17:16:45.044Z,1.46
2023-03-11T17:19:13.849Z,1.49
2023-03-11T17:21:42.323Z,1.55
2023-03-11T17:24:12.802Z,1.60
2023-03-11T17:26:41.400Z,1.63
2023-03-11T17:29:09.974Z,1.68
2023-03-11T17:31:40.916Z,1.66
2023-03-11T17:34:09.611Z,1.66
2023-03-11T17:36:38.392Z,1.70
2023-03-11T17:39:07.481Z,1.72
2023-03-11T17:41:40.441Z,1.68
2023-03-11T17:44:09.190Z,1.68
2023-03-11T17:46:39.425Z,1.64
2023-03-11T17:49:08.509Z,1.64
2023-03-11T17:52:01.862Z,1.56
2023-03-11T17:54:30.355Z,1.56
2023-03-11T17:57:00.724Z,1.50
2023-03-11T17:59:29.516Z,1.55
2023-03-11T18:01:58.701Z,1.51
2023-03-11T18:04:27.574Z,1.44
2023-03-11T18:06:56.618Z,1.47
2023-03-11T18:09:25.318Z,1.44
2023-03-11T18:11:54.413Z,1.40
2023-03-11T18:14:24.742Z,1.32
2023-03-11T18:16:53.446Z,1.29
2023-03-11T18:19:22.021Z,1.30
2023-03-11T18:21:53.436Z,1.28
2023-03-11T18:24:22.117Z,1.29
2023-03-11T18:26:50.688Z,1.22
2023-03-11T18:29:47.524Z,1.33
2023-03-11T18:32:21.058Z,1.34
2023-03-11T18:34:51.299Z,1.32
2023-03-11T18:37:20.123Z,1.38
2023-03-11T18:39:48.892Z,1.35
2023-03-11T18:42:17.961Z,1.37
2023-03-11T18:44:48.092Z,1.34
2023-03-11T18:47:16.447Z,1.31
2023-03-11T18:49:46.849Z,1.23
2023-03-11T18:52:15.865Z,1.23
2023-03-11T18:54:45.452Z,1.21
2023-03-11T18:57:16.096Z,1.17
2023-03-11T18:59:44.954Z,1.14
2023-03-11T19:02:15.543Z,1.13
2023-03-11T19:04:46.986Z,1.11
2023-03-11T19:07:15.511Z,1.05
2023-03-11T19:09:44.322Z,1.04
2023-03-11T19:12:13.203Z,1.09
2023-03-11T19:14:41.953Z,1.08
2023-03-11T19:17:12.304Z,1.08
2023-03-11T19:19:42.599Z,1.09
2023-03-11T19:22:11.006Z,1.09
2023-03-11T19:24:40.441Z,1.01
2023-03-11T19:27:15.110Z,1.00
2023-03-11T19:29:44.040Z,0.98
2023-03-11T19:32:12.701Z,0.94
2023-03-11T19:34:43.159Z,0.88
2023-03-11T19:37:36.747Z,0.89
2023-03-11T19:40:06.243Z,0.87
2023-03-11T19:42:38.424Z,0.83
2023-03-11T19:45:08.244Z,0.81
2023-03-11T19:47:37.587Z,0.80
2023-03-11T19:50:08.777Z,0.80
2023-03-11T19:52:37.819Z,0.76
2023-03-11T19:55:07.286Z,0.75
2023-03-11T19:57:39.079Z,0.68
2023-03-11T20:00:09.662Z,0.65
2023-03-11T20:02:39.415Z,0.63
2023-03-11T20:05:11.192Z,0.60
2023-03-11T20:07:40.224Z,0.58
2023-03-11T20:10:09.632Z,0.54
2023-03-11T20:12:38.387Z,0.48
2023-03-11T20:15:10.761Z,0.47
2023-03-11T20:17:39.754Z,0.46
2023-03-11T20:20:12.129Z,0.43
2023-03-11T20:22:46.716Z,0.39
2023-03-11T20:25:16.246Z,0.33
2023-03-11T20:27:45.451Z,0.26
2023-03-11T20:30:15.299Z,0.21
2023-03-11T20:32:43.962Z,0.15
2023-03-11T20:35:15.513Z,0.12
2023-03-11T20:37:45.702Z,0.07
2023-03-11T20:40:16.732Z,0.03
2023-03-11T20:42:47.387Z,-0.15
2023-03-11T20:45:18.143Z,-0.14
2023-03-11T20:47:46.832Z,-0.22
2023-03-11T20:50:19.528Z,-0.29
2023-03-11T20:53:00.561Z,-0.36
2023-03-11T20:55:29.196Z,-0.38
2023-03-11T20:57:57.969Z,-0.48
2023-03-11T21:00:27.083Z,-0.50
2023-03-11T21:02:56.162Z,-0.53
2023-03-11T21:05:26.895Z,-0.57
2023-03-11T21:07:55.535Z,-0.62
2023-03-11T21:10:23.982Z,-0.68
2023-03-11T21:12:53.056Z,-0.70
2023-03-11T21:15:22.119Z,-0.75
2023-03-11T21:17:51.438Z,-0.82
2023-03-11T21:20:20.810Z,-0.86
2023-03-11T21:22:51.132Z,-0.87
2023-03-11T21:25:20.495Z,-0.88
2023-03-11T21:27:49.701Z,-0.91
2023-03-11T21:30:19.239Z,-0.93
2023-03-11T21:32:48.778Z,-0.95
2023-03-11T21:35:17.426Z,-0.96
2023-03-11T21:37:46.936Z,-0.97
2023-03-11T21:40:19.647Z,-1.01
2023-03-11T21:42:48.542Z,-1.02
2023-03-11T21:45:18.011Z,-1.05
2023-03-11T21:47:46.825Z,-1.08
2023-03-11T21:50:15.638Z,-1.12
2023-03-11T21:52:45.261Z,-1.15
2023-03-11T21:55:14.145Z,-1.16
2023-03-11T21:57:44.324Z,-1.13
2023-03-11T22:00:13.889Z,-1.11
2023-03-11T22:02:45.156Z,-1.07
2023-03-11T22:05:14.845Z,-1.02
2023-03-11T22:07:43.909Z,-1.01
2023-03-11T22:10:13.314Z,-1.03
2023-03-11T22:12:43.620Z,-1.02
2023-03-11T22:15:15.617Z,-1.01
2023-03-11T22:17:44.428Z,-0.99
2023-03-11T22:20:14.249Z,-0.97
2023-03-11T22:22:42.765Z,-0.94
2023-03-11T22:25:11.810Z,-0.95
2023-03-11T22:28:45.040Z,-0.95
2023-03-11T22:31:17.625Z,-0.97
2023-03-11T22:33:46.283Z,-0.97
2023-03-11T22:36:14.937Z,-0.98
2023-03-11T22:38:44.832Z,-0.95
2023-03-11T22:41:14.133Z,-0.91
2023-03-11T22:43:42.754Z,-0.91
2023-03-11T22:46:15.655Z,-0.88
2023-03-11T22:48:45.662Z,-0.85
2023-03-11T22:51:14.460Z,-0.86
2023-03-11T22:53:42.840Z,-0.89
2023-03-11T22:56:13.873Z,-0.90
2023-03-11T22:58:42.524Z,-0.96
2023-03-11T23:01:11.577Z,-1.02
2023-03-11T23:03:41.743Z,-1.04
2023-03-11T23:06:10.891Z,-1.07
2023-03-11T23:08:39.367Z,-1.20
2023-03-11T23:11:12.828Z,-1.31
2023-03-11T23:13:42.350Z,-1.33
2023-03-11T23:16:14.321Z,-1.35
2023-03-11T23:18:44.942Z,-1.35
2023-03-11T23:21:18.367Z,-1.35
2023-03-11T23:23:46.984Z,-1.35
2023-03-11T23:26:16.092Z,-1.39
2023-03-11T23:28:45.452Z,-1.38
2023-03-11T23:31:16.381Z,-1.38
2023-03-11T23:33:46.665Z,-1.40
2023-03-11T23:36:16.781Z,-1.44
2023-03-11T23:38:59.606Z,-1.46
2023-03-11T23:41:29.464Z,-1.44
2023-03-11T23:43:58.043Z,-1.43
2023-03-11T23:46:27.536Z,-1.45
2023-03-11T23:48:57.889Z,-1.45
2023-03-11T23:51:26.740Z,-1.45
2023-03-11T23:53:56.188Z,-1.47
2023-03-11T23:56:25.101Z,-1.47
2023-03-11T23:58:55.137Z,-1.47
